sensor_id;sensor_type;location;lat;lon;timestamp;P1;durP1;ratioP1;P2;durP2;ratioP2
22711;SDS011;11523;50.390;8.072;2022-10-19T04:00:47;58.25;;;12.88;;
22711;SDS011;11523;50.390;8.072;2022-10-19T04:03:19;56.78;;;12.70;;
22711;SDS011;11523;50.390;8.072;2022-10-19T04:05:45;49.67;;;11.80;;
22711;SDS011;11523;50.390;8.072;2022-10-19T04:08:11;48.25;;;11.07;;
22711;SDS011;11523;50.390;8.072;2022-10-19T04:10:37;35.25;;;11.45;;
22711;SDS011;11523;50.390;8.072;2022-10-19T04:13:02;23.20;;;11.77;;
22711;SDS011;11523;50.390;8.072;2022-10-19T04:15:28;55.05;;;13.02;;
22711;SDS011;11523;50.390;8.072;2022-10-19T04:17:54;49.35;;;12.10;;
22711;SDS011;11523;50.390;8.072;2022-10-19T04:20:20;54.00;;;12.88;;
22711;SDS011;11523;50.390;8.072;2022-10-19T04:22:46;36.85;;;11.98;;
22711;SDS011;11523;50.390;8.072;2022-10-19T04:25:12;68.07;;;10.95;;
22711;SDS011;11523;50.390;8.072;2022-10-19T04:27:38;57.08;;;10.50;;
22711;SDS011;11523;50.390;8.072;2022-10-19T04:30:04;40.65;;;10.45;;
22711;SDS011;11523;50.390;8.072;2022-10-19T04:32:30;36.22;;;11.10;;
22711;SDS011;11523;50.390;8.072;2022-10-19T04:34:56;29.83;;;9.50;;
22711;SDS011;11523;50.390;8.072;2022-10-19T04:37:22;29.05;;;9.35;;
22711;SDS011;11523;50.390;8.072;2022-10-19T04:39:48;38.40;;;9.05;;
22711;SDS011;11523;50.390;8.072;2022-10-19T04:42:14;24.35;;;9.60;;
22711;SDS011;11523;50.390;8.072;2022-10-19T04:44:40;29.83;;;9.60;;
22711;SDS011;11523;50.390;8.072;2022-10-19T04:47:06;19.42;;;9.77;;
22711;SDS011;11523;50.390;8.072;2022-10-19T04:49:31;16.17;;;9.40;;
22711;SDS011;11523;50.390;8.072;2022-10-19T04:51:57;12.70;;;8.18;;
22711;SDS011;11523;50.390;8.072;2022-10-19T04:54:23;16.80;;;7.40;;
22711;SDS011;11523;50.390;8.072;2022-10-19T04:56:49;10.23;;;7.55;;
22711;SDS011;11523;50.390;8.072;2022-10-19T04:59:17;10.10;;;7.57;;
22711;SDS011;11523;50.390;8.072;2022-10-19T05:01:43;8.95;;;7.10;;
22711;SDS011;11523;50.390;8.072;2022-10-19T05:04:09;10.65;;;7.53;;
22711;SDS011;11523;50.390;8.072;2022-10-19T05:06:36;22.00;;;7.53;;
22711;SDS011;11523;50.390;8.072;2022-10-19T05:09:02;22.35;;;8.18;;
22711;SDS011;11523;50.390;8.072;2022-10-19T05:11:28;32.95;;;8.32;;
22711;SDS011;11523;50.390;8.072;2022-10-19T05:13:54;23.67;;;8.40;;
22711;SDS011;11523;50.390;8.072;2022-10-19T05:16:21;21.65;;;9.20;;
22711;SDS011;11523;50.390;8.072;2022-10-19T05:18:48;13.65;;;9.15;;
22711;SDS011;11523;50.390;8.072;2022-10-19T05:21:14;14.55;;;8.73;;
22711;SDS011;11523;50.390;8.072;2022-10-19T05:23:40;14.20;;;8.75;;
22711;SDS011;11523;50.390;8.072;2022-10-19T05:26:08;10.77;;;9.18;;
22711;SDS011;11523;50.390;8.072;2022-10-19T05:28:34;10.95;;;8.48;;
22711;SDS011;11523;50.390;8.072;2022-10-19T05:31:04;10.13;;;9.05;;
22711;SDS011;11523;50.390;8.072;2022-10-19T05:33:30;13.00;;;9.05;;
22711;SDS011;11523;50.390;8.072;2022-10-19T05:35:56;9.48;;;7.85;;
22711;SDS011;11523;50.390;8.072;2022-10-19T05:38:22;12.88;;;7.97;;
22711;SDS011;11523;50.390;8.072;2022-10-19T05:40:48;9.18;;;6.93;;
22711;SDS011;11523;50.390;8.072;2022-10-19T05:43:14;6.97;;;6.28;;
22711;SDS011;11523;50.390;8.072;2022-10-19T05:45:40;7.85;;;6.82;;
22711;SDS011;11523;50.390;8.072;2022-10-19T05:48:06;8.18;;;6.07;;
22711;SDS011;11523;50.390;8.072;2022-10-19T05:50:32;9.65;;;6.35;;
22711;SDS011;11523;50.390;8.072;2022-10-19T05:52:58;11.32;;;6.50;;
22711;SDS011;11523;50.390;8.072;2022-10-19T05:55:24;12.65;;;6.47;;
22711;SDS011;11523;50.390;8.072;2022-10-19T05:57:49;10.77;;;6.93;;
22711;SDS011;11523;50.390;8.072;2022-10-19T06:00:16;7.97;;;6.53;;
22711;SDS011;11523;50.390;8.072;2022-10-19T06:02:42;8.85;;;6.40;;
22711;SDS011;11523;50.390;8.072;2022-10-19T06:05:08;9.27;;;6.55;;
22711;SDS011;11523;50.390;8.072;2022-10-19T06:07:34;7.68;;;6.60;;
22711;SDS011;11523;50.390;8.072;2022-10-19T06:10:00;15.02;;;7.18;;
22711;SDS011;11523;50.390;8.072;2022-10-19T06:12:26;7.30;;;6.60;;
22711;SDS011;11523;50.390;8.072;2022-10-19T06:14:51;10.90;;;6.88;;
22711;SDS011;11523;50.390;8.072;2022-10-19T06:17:17;9.48;;;6.63;;
22711;SDS011;11523;50.390;8.072;2022-10-19T06:19:43;7.63;;;6.75;;
22711;SDS011;11523;50.390;8.072;2022-10-19T06:22:09;9.48;;;6.95;;
22711;SDS011;11523;50.390;8.072;2022-10-19T06:24:35;11.63;;;6.95;;
22711;SDS011;11523;50.390;8.072;2022-10-19T06:27:01;8.27;;;7.38;;
22711;SDS011;11523;50.390;8.072;2022-10-19T06:29:27;8.52;;;7.10;;
22711;SDS011;11523;50.390;8.072;2022-10-19T06:31:53;16.25;;;8.00;;
22711;SDS011;11523;50.390;8.072;2022-10-19T06:34:20;14.07;;;7.70;;
22711;SDS011;11523;50.390;8.072;2022-10-19T06:36:46;15.10;;;7.55;;
22711;SDS011;11523;50.390;8.072;2022-10-19T06:39:11;16.63;;;8.30;;
22711;SDS011;11523;50.390;8.072;2022-10-19T06:41:37;18.60;;;9.30;;
22711;SDS011;11523;50.390;8.072;2022-10-19T06:44:03;9.63;;;7.72;;
22711;SDS011;11523;50.390;8.072;2022-10-19T06:46:29;11.43;;;7.88;;
22711;SDS011;11523;50.390;8.072;2022-10-19T06:48:56;8.57;;;7.43;;
22711;SDS011;11523;50.390;8.072;2022-10-19T06:51:23;12.18;;;8.57;;
22711;SDS011;11523;50.390;8.072;2022-10-19T06:53:49;13.65;;;8.43;;
22711;SDS011;11523;50.390;8.072;2022-10-19T06:56:15;10.50;;;7.90;;
22711;SDS011;11523;50.390;8.072;2022-10-19T06:58:42;13.10;;;7.78;;
22711;SDS011;11523;50.390;8.072;2022-10-19T07:01:08;12.02;;;9.07;;
22711;SDS011;11523;50.390;8.072;2022-10-19T07:03:35;18.77;;;9.38;;
22711;SDS011;11523;50.390;8.072;2022-10-19T07:06:03;20.13;;;8.00;;
22711;SDS011;11523;50.390;8.072;2022-10-19T07:08:29;17.73;;;9.25;;
22711;SDS011;11523;50.390;8.072;2022-10-19T07:10:57;13.20;;;9.07;;
22711;SDS011;11523;50.390;8.072;2022-10-19T07:13:23;12.27;;;8.55;;
22711;SDS011;11523;50.390;8.072;2022-10-19T07:15:54;11.40;;;8.63;;
22711;SDS011;11523;50.390;8.072;2022-10-19T07:18:20;10.82;;;8.00;;
22711;SDS011;11523;50.390;8.072;2022-10-19T07:20:53;11.73;;;9.38;;
22711;SDS011;11523;50.390;8.072;2022-10-19T07:23:19;14.82;;;7.88;;
22711;SDS011;11523;50.390;8.072;2022-10-19T07:25:45;9.15;;;7.88;;
22711;SDS011;11523;50.390;8.072;2022-10-19T07:28:11;11.55;;;8.75;;
22711;SDS011;11523;50.390;8.072;2022-10-19T07:30:37;12.45;;;9.38;;
22711;SDS011;11523;50.390;8.072;2022-10-19T07:33:03;12.52;;;8.52;;
22711;SDS011;11523;50.390;8.072;2022-10-19T07:35:30;11.20;;;8.70;;
22711;SDS011;11523;50.390;8.072;2022-10-19T07:37:56;13.40;;;8.95;;
22711;SDS011;11523;50.390;8.072;2022-10-19T07:40:22;12.50;;;8.88;;
22711;SDS011;11523;50.390;8.072;2022-10-19T07:42:48;11.25;;;7.65;;
22711;SDS011;11523;50.390;8.072;2022-10-19T07:45:14;10.38;;;7.57;;
22711;SDS011;11523;50.390;8.072;2022-10-19T07:47:40;9.93;;;7.63;;
22711;SDS011;11523;50.390;8.072;2022-10-19T07:50:06;11.05;;;8.38;;
22711;SDS011;11523;50.390;8.072;2022-10-19T07:52:32;10.90;;;7.60;;
22711;SDS011;11523;50.390;8.072;2022-10-19T07:54:58;13.82;;;8.13;;
22711;SDS011;11523;50.390;8.072;2022-10-19T07:57:24;14.07;;;8.65;;
22711;SDS011;11523;50.390;8.072;2022-10-19T07:59:50;13.25;;;8.48;;
22711;SDS011;11523;50.390;8.072;2022-10-19T08:02:16;9.35;;;7.95;;
22711;SDS011;11523;50.390;8.072;2022-10-19T08:04:44;10.75;;;8.32;;
22711;SDS011;11523;50.390;8.072;2022-10-19T08:07:10;14.57;;;8.93;;
22711;SDS011;11523;50.390;8.072;2022-10-19T08:09:36;11.52;;;8.38;;
22711;SDS011;11523;50.390;8.072;2022-10-19T08:12:02;15.05;;;8.82;;
22711;SDS011;11523;50.390;8.072;2022-10-19T08:14:29;13.43;;;8.45;;
22711;SDS011;11523;50.390;8.072;2022-10-19T08:16:55;11.77;;;8.48;;
22711;SDS011;11523;50.390;8.072;2022-10-19T08:19:20;13.07;;;8.52;;
22711;SDS011;11523;50.390;8.072;2022-10-19T08:21:48;16.17;;;9.48;;
22711;SDS011;11523;50.390;8.072;2022-10-19T08:24:14;14.18;;;8.75;;
22711;SDS011;11523;50.390;8.072;2022-10-19T08:26:40;14.68;;;9.57;;
22711;SDS011;11523;50.390;8.072;2022-10-19T08:29:11;13.20;;;9.30;;
22711;SDS011;11523;50.390;8.072;2022-10-19T08:31:37;11.63;;;8.60;;
22711;SDS011;11523;50.390;8.072;2022-10-19T08:34:03;12.68;;;8.85;;
22711;SDS011;11523;50.390;8.072;2022-10-19T08:36:29;13.45;;;8.73;;
22711;SDS011;11523;50.390;8.072;2022-10-19T08:38:56;12.57;;;9.35;;
22711;SDS011;11523;50.390;8.072;2022-10-19T08:44:06;12.80;;;8.63;;
22711;SDS011;11523;50.390;8.072;2022-10-19T08:49:21;12.98;;;9.00;;
22711;SDS011;11523;50.390;8.072;2022-10-19T08:51:48;17.10;;;9.27;;
22711;SDS011;11523;50.390;8.072;2022-10-19T08:54:16;12.93;;;9.73;;
22711;SDS011;11523;50.390;8.072;2022-10-19T08:56:47;17.15;;;9.38;;
22711;SDS011;11523;50.390;8.072;2022-10-19T09:01:59;10.02;;;9.02;;
22711;SDS011;11523;50.390;8.072;2022-10-19T09:04:28;15.75;;;9.82;;
22711;SDS011;11523;50.390;8.072;2022-10-19T09:09:23;11.63;;;9.13;;
22711;SDS011;11523;50.390;8.072;2022-10-19T09:11:50;16.05;;;9.55;;
22711;SDS011;11523;50.390;8.072;2022-10-19T09:14:24;13.20;;;8.10;;
22711;SDS011;11523;50.390;8.072;2022-10-19T09:16:50;10.75;;;8.15;;
22711;SDS011;11523;50.390;8.072;2022-10-19T09:19:23;13.52;;;7.85;;
22711;SDS011;11523;50.390;8.072;2022-10-19T09:22:03;11.88;;;7.80;;
22711;SDS011;11523;50.390;8.072;2022-10-19T09:24:34;14.68;;;7.90;;
22711;SDS011;11523;50.390;8.072;2022-10-19T09:27:02;11.52;;;7.75;;
22711;SDS011;11523;50.390;8.072;2022-10-19T09:29:30;12.48;;;7.50;;
22711;SDS011;11523;50.390;8.072;2022-10-19T09:32:00;9.98;;;7.30;;
22711;SDS011;11523;50.390;8.072;2022-10-19T09:34:32;15.98;;;8.25;;
22711;SDS011;11523;50.390;8.072;2022-10-19T09:36:59;13.10;;;7.90;;
22711;SDS011;11523;50.390;8.072;2022-10-19T09:39:26;11.32;;;8.10;;
22711;SDS011;11523;50.390;8.072;2022-10-19T09:41:54;13.00;;;7.28;;
22711;SDS011;11523;50.390;8.072;2022-10-19T09:44:20;12.75;;;6.95;;
22711;SDS011;11523;50.390;8.072;2022-10-19T09:49:41;10.30;;;7.07;;
22711;SDS011;11523;50.390;8.072;2022-10-19T09:54:59;14.45;;;7.28;;
22711;SDS011;11523;50.390;8.072;2022-10-19T09:57:25;12.18;;;7.75;;
22711;SDS011;11523;50.390;8.072;2022-10-19T09:59:51;11.70;;;6.68;;
22711;SDS011;11523;50.390;8.072;2022-10-19T10:02:18;11.25;;;6.20;;
22711;SDS011;11523;50.390;8.072;2022-10-19T10:05:12;10.48;;;6.78;;
22711;SDS011;11523;50.390;8.072;2022-10-19T10:07:38;8.80;;;6.07;;
22711;SDS011;11523;50.390;8.072;2022-10-19T10:10:18;14.32;;;6.50;;
22711;SDS011;11523;50.390;8.072;2022-10-19T10:12:45;7.32;;;6.03;;
22711;SDS011;11523;50.390;8.072;2022-10-19T10:15:18;9.45;;;6.07;;
22711;SDS011;11523;50.390;8.072;2022-10-19T10:17:46;11.75;;;6.43;;
22711;SDS011;11523;50.390;8.072;2022-10-19T10:20:29;8.00;;;5.57;;
22711;SDS011;11523;50.390;8.072;2022-10-19T10:23:03;10.75;;;5.55;;
22711;SDS011;11523;50.390;8.072;2022-10-19T10:25:31;9.48;;;6.10;;
22711;SDS011;11523;50.390;8.072;2022-10-19T10:27:59;14.50;;;6.50;;
22711;SDS011;11523;50.390;8.072;2022-10-19T10:30:26;11.63;;;5.68;;
22711;SDS011;11523;50.390;8.072;2022-10-19T10:32:53;11.10;;;6.28;;
22711;SDS011;11523;50.390;8.072;2022-10-19T10:38:03;13.93;;;6.18;;
22711;SDS011;11523;50.390;8.072;2022-10-19T10:40:29;11.67;;;5.90;;
22711;SDS011;11523;50.390;8.072;2022-10-19T10:43:06;7.40;;;5.95;;
22711;SDS011;11523;50.390;8.072;2022-10-19T10:45:46;10.07;;;6.60;;
22711;SDS011;11523;50.390;8.072;2022-10-19T10:50:58;9.23;;;6.07;;
22711;SDS011;11523;50.390;8.072;2022-10-19T10:53:38;15.60;;;5.72;;
22711;SDS011;11523;50.390;8.072;2022-10-19T10:56:04;8.02;;;5.68;;
22711;SDS011;11523;50.390;8.072;2022-10-19T10:58:41;8.27;;;5.68;;
22711;SDS011;11523;50.390;8.072;2022-10-19T11:01:21;10.23;;;5.88;;
22711;SDS011;11523;50.390;8.072;2022-10-19T11:04:11;10.50;;;6.07;;
22711;SDS011;11523;50.390;8.072;2022-10-19T11:06:34;7.97;;;5.60;;
22711;SDS011;11523;50.390;8.072;2022-10-19T11:09:05;10.70;;;5.45;;
22711;SDS011;11523;50.390;8.072;2022-10-19T11:11:35;6.68;;;5.72;;
22711;SDS011;11523;50.390;8.072;2022-10-19T11:16:37;11.55;;;6.00;;
22711;SDS011;11523;50.390;8.072;2022-10-19T11:19:07;8.18;;;6.03;;
22711;SDS011;11523;50.390;8.072;2022-10-19T11:21:41;11.30;;;6.25;;
22711;SDS011;11523;50.390;8.072;2022-10-19T11:24:12;11.43;;;5.43;;
22711;SDS011;11523;50.390;8.072;2022-10-19T11:26:54;9.35;;;5.05;;
22711;SDS011;11523;50.390;8.072;2022-10-19T11:29:26;9.10;;;5.30;;
22711;SDS011;11523;50.390;8.072;2022-10-19T11:31:56;10.02;;;5.43;;
22711;SDS011;11523;50.390;8.072;2022-10-19T11:34:30;8.55;;;5.60;;
22711;SDS011;11523;50.390;8.072;2022-10-19T11:39:29;10.27;;;5.47;;
22711;SDS011;11523;50.390;8.072;2022-10-19T11:50:02;6.85;;;5.43;;
22711;SDS011;11523;50.390;8.072;2022-10-19T11:52:40;9.82;;;5.78;;
22711;SDS011;11523;50.390;8.072;2022-10-19T11:55:32;11.90;;;5.40;;
22711;SDS011;11523;50.390;8.072;2022-10-19T11:58:04;10.35;;;5.60;;
22711;SDS011;11523;50.390;8.072;2022-10-19T12:00:34;7.63;;;5.55;;
22711;SDS011;11523;50.390;8.072;2022-10-19T12:05:46;9.40;;;5.45;;
22711;SDS011;11523;50.390;8.072;2022-10-19T12:13:37;8.98;;;5.28;;
22711;SDS011;11523;50.390;8.072;2022-10-19T12:16:04;10.50;;;4.85;;
22711;SDS011;11523;50.390;8.072;2022-10-19T12:21:07;7.68;;;5.20;;
22711;SDS011;11523;50.390;8.072;2022-10-19T12:23:36;6.93;;;5.00;;
22711;SDS011;11523;50.390;8.072;2022-10-19T12:26:03;8.93;;;5.47;;
22711;SDS011;11523;50.390;8.072;2022-10-19T12:28:31;11.05;;;5.03;;
22711;SDS011;11523;50.390;8.072;2022-10-19T12:31:03;7.68;;;4.82;;
22711;SDS011;11523;50.390;8.072;2022-10-19T12:38:51;13.00;;;6.07;;
22711;SDS011;11523;50.390;8.072;2022-10-19T12:41:25;12.23;;;5.05;;
22711;SDS011;11523;50.390;8.072;2022-10-19T12:51:45;5.75;;;4.25;;
22711;SDS011;11523;50.390;8.072;2022-10-19T12:54:12;6.20;;;4.22;;
22711;SDS011;11523;50.390;8.072;2022-10-19T12:56:47;10.05;;;4.38;;
22711;SDS011;11523;50.390;8.072;2022-10-19T12:59:20;6.22;;;3.97;;
22711;SDS011;11523;50.390;8.072;2022-10-19T13:01:53;9.02;;;4.05;;
22711;SDS011;11523;50.390;8.072;2022-10-19T13:04:30;13.52;;;4.18;;
22711;SDS011;11523;50.390;8.072;2022-10-19T13:14:49;10.35;;;4.10;;
22711;SDS011;11523;50.390;8.072;2022-10-19T13:22:44;6.47;;;4.13;;
22711;SDS011;11523;50.390;8.072;2022-10-19T13:27:48;8.55;;;3.80;;
22711;SDS011;11523;50.390;8.072;2022-10-19T13:32:59;7.70;;;3.95;;
22711;SDS011;11523;50.390;8.072;2022-10-19T13:35:27;8.52;;;3.50;;
22711;SDS011;11523;50.390;8.072;2022-10-19T13:38:10;7.57;;;3.70;;
22711;SDS011;11523;50.390;8.072;2022-10-19T13:40:36;6.13;;;3.22;;
22711;SDS011;11523;50.390;8.072;2022-10-19T13:43:03;6.97;;;3.80;;
22711;SDS011;11523;50.390;8.072;2022-10-19T13:45:29;10.82;;;3.53;;
22711;SDS011;11523;50.390;8.072;2022-10-19T13:47:57;11.25;;;3.75;;
22711;SDS011;11523;50.390;8.072;2022-10-19T13:53:17;5.55;;;3.28;;
22711;SDS011;11523;50.390;8.072;2022-10-19T14:01:20;7.72;;;3.35;;
22711;SDS011;11523;50.390;8.072;2022-10-19T14:04:02;5.70;;;3.10;;
22711;SDS011;11523;50.390;8.072;2022-10-19T14:06:35;9.20;;;3.65;;
22711;SDS011;11523;50.390;8.072;2022-10-19T14:12:01;8.48;;;3.65;;
22711;SDS011;11523;50.390;8.072;2022-10-19T14:14:37;8.30;;;3.35;;
22711;SDS011;11523;50.390;8.072;2022-10-19T14:17:12;7.45;;;3.38;;
22711;SDS011;11523;50.390;8.072;2022-10-19T14:19:43;8.15;;;3.45;;
22711;SDS011;11523;50.390;8.072;2022-10-19T14:22:17;7.20;;;3.30;;
22711;SDS011;11523;50.390;8.072;2022-10-19T14:24:43;9.93;;;3.78;;
22711;SDS011;11523;50.390;8.072;2022-10-19T14:27:09;11.63;;;3.42;;
22711;SDS011;11523;50.390;8.072;2022-10-19T14:29:45;8.57;;;3.38;;
22711;SDS011;11523;50.390;8.072;2022-10-19T14:32:11;10.25;;;3.40;;
22711;SDS011;11523;50.390;8.072;2022-10-19T14:34:41;11.73;;;3.80;;
22711;SDS011;11523;50.390;8.072;2022-10-19T14:37:16;10.57;;;3.38;;
22711;SDS011;11523;50.390;8.072;2022-10-19T14:39:42;9.45;;;3.25;;
22711;SDS011;11523;50.390;8.072;2022-10-19T14:42:21;9.48;;;3.50;;
22711;SDS011;11523;50.390;8.072;2022-10-19T14:44:47;11.00;;;3.55;;
22711;SDS011;11523;50.390;8.072;2022-10-19T14:47:15;11.90;;;3.25;;
22711;SDS011;11523;50.390;8.072;2022-10-19T14:49:42;10.65;;;3.25;;
22711;SDS011;11523;50.390;8.072;2022-10-19T14:52:08;5.75;;;3.20;;
22711;SDS011;11523;50.390;8.072;2022-10-19T14:54:36;9.70;;;3.33;;
22711;SDS011;11523;50.390;8.072;2022-10-19T15:02:39;11.98;;;3.45;;
22711;SDS011;11523;50.390;8.072;2022-10-19T15:05:18;7.57;;;2.65;;
22711;SDS011;11523;50.390;8.072;2022-10-19T15:07:44;10.13;;;3.30;;
22711;SDS011;11523;50.390;8.072;2022-10-19T15:10:16;11.60;;;3.00;;
22711;SDS011;11523;50.390;8.072;2022-10-19T15:12:43;8.80;;;2.75;;
22711;SDS011;11523;50.390;8.072;2022-10-19T15:15:12;8.13;;;3.00;;
22711;SDS011;11523;50.390;8.072;2022-10-19T15:20:41;5.25;;;2.83;;
22711;SDS011;11523;50.390;8.072;2022-10-19T15:26:03;5.78;;;2.97;;
22711;SDS011;11523;50.390;8.072;2022-10-19T15:28:36;6.63;;;2.80;;
22711;SDS011;11523;50.390;8.072;2022-10-19T15:31:03;7.85;;;2.80;;
22711;SDS011;11523;50.390;8.072;2022-10-19T15:33:29;11.75;;;3.38;;
22711;SDS011;11523;50.390;8.072;2022-10-19T15:36:05;11.25;;;2.95;;
22711;SDS011;11523;50.390;8.072;2022-10-19T15:38:32;5.03;;;2.53;;
22711;SDS011;11523;50.390;8.072;2022-10-19T15:40:59;8.23;;;2.65;;
22711;SDS011;11523;50.390;8.072;2022-10-19T15:43:38;8.40;;;2.55;;
22711;SDS011;11523;50.390;8.072;2022-10-19T15:53:54;8.18;;;2.80;;
22711;SDS011;11523;50.390;8.072;2022-10-19T15:56:21;7.88;;;2.90;;
22711;SDS011;11523;50.390;8.072;2022-10-19T15:58:50;7.82;;;2.65;;
22711;SDS011;11523;50.390;8.072;2022-10-19T16:01:17;6.32;;;2.72;;
22711;SDS011;11523;50.390;8.072;2022-10-19T16:03:44;7.75;;;2.70;;
22711;SDS011;11523;50.390;8.072;2022-10-19T16:06:10;7.22;;;2.42;;
22711;SDS011;11523;50.390;8.072;2022-10-19T16:08:36;8.10;;;2.70;;
22711;SDS011;11523;50.390;8.072;2022-10-19T16:11:02;11.70;;;3.33;;
22711;SDS011;11523;50.390;8.072;2022-10-19T16:13:29;10.30;;;2.55;;
22711;SDS011;11523;50.390;8.072;2022-10-19T16:15:59;8.38;;;2.33;;
22711;SDS011;11523;50.390;8.072;2022-10-19T16:18:27;6.45;;;2.60;;
22711;SDS011;11523;50.390;8.072;2022-10-19T16:20:53;7.65;;;2.78;;
22711;SDS011;11523;50.390;8.072;2022-10-19T16:23:19;5.72;;;2.30;;
22711;SDS011;11523;50.390;8.072;2022-10-19T16:25:45;4.65;;;2.50;;
22711;SDS011;11523;50.390;8.072;2022-10-19T16:28:11;5.85;;;2.60;;
22711;SDS011;11523;50.390;8.072;2022-10-19T16:30:37;5.47;;;3.00;;
22711;SDS011;11523;50.390;8.072;2022-10-19T16:33:03;12.18;;;3.30;;
22711;SDS011;11523;50.390;8.072;2022-10-19T16:35:29;10.05;;;2.95;;
22711;SDS011;11523;50.390;8.072;2022-10-19T16:37:55;6.70;;;2.90;;
22711;SDS011;11523;50.390;8.072;2022-10-19T16:40:23;9.32;;;3.03;;
22711;SDS011;11523;50.390;8.072;2022-10-19T16:42:49;9.25;;;2.85;;
22711;SDS011;11523;50.390;8.072;2022-10-19T16:45:15;6.20;;;2.97;;
22711;SDS011;11523;50.390;8.072;2022-10-19T16:47:40;6.35;;;2.50;;
22711;SDS011;11523;50.390;8.072;2022-10-19T16:50:07;10.10;;;3.10;;
22711;SDS011;11523;50.390;8.072;2022-10-19T16:52:34;8.10;;;3.22;;
22711;SDS011;11523;50.390;8.072;2022-10-19T16:55:00;10.75;;;3.53;;
22711;SDS011;11523;50.390;8.072;2022-10-19T16:57:26;5.68;;;2.70;;
22711;SDS011;11523;50.390;8.072;2022-10-19T16:59:52;8.05;;;3.00;;
22711;SDS011;11523;50.390;8.072;2022-10-19T17:02:19;10.90;;;3.67;;
22711;SDS011;11523;50.390;8.072;2022-10-19T17:04:45;6.20;;;3.15;;
22711;SDS011;11523;50.390;8.072;2022-10-19T17:07:11;6.32;;;3.60;;
22711;SDS011;11523;50.390;8.072;2022-10-19T17:09:38;5.00;;;3.13;;
22711;SDS011;11523;50.390;8.072;2022-10-19T17:12:04;7.63;;;3.63;;
22711;SDS011;11523;50.390;8.072;2022-10-19T17:14:30;7.35;;;3.33;;
22711;SDS011;11523;50.390;8.072;2022-10-19T17:16:56;6.00;;;3.13;;
22711;SDS011;11523;50.390;8.072;2022-10-19T17:19:22;5.97;;;2.83;;
22711;SDS011;11523;50.390;8.072;2022-10-19T17:21:48;9.85;;;3.67;;
22711;SDS011;11523;50.390;8.072;2022-10-19T17:24:15;9.63;;;3.13;;
22711;SDS011;11523;50.390;8.072;2022-10-19T17:26:42;9.02;;;3.50;;
22711;SDS011;11523;50.390;8.072;2022-10-19T17:29:09;9.07;;;3.25;;
22711;SDS011;11523;50.390;8.072;2022-10-19T17:31:35;7.25;;;3.53;;
22711;SDS011;11523;50.390;8.072;2022-10-19T17:34:02;6.53;;;3.40;;
22711;SDS011;11523;50.390;8.072;2022-10-19T17:36:29;6.60;;;3.08;;
22711;SDS011;11523;50.390;8.072;2022-10-19T17:38:56;8.30;;;4.20;;
22711;SDS011;11523;50.390;8.072;2022-10-19T17:41:22;8.63;;;4.30;;
22711;SDS011;11523;50.390;8.072;2022-10-19T17:43:49;11.90;;;3.58;;
22711;SDS011;11523;50.390;8.072;2022-10-19T17:46:16;7.43;;;3.88;;
22711;SDS011;11523;50.390;8.072;2022-10-19T17:48:42;9.23;;;3.50;;
22711;SDS011;11523;50.390;8.072;2022-10-19T17:51:13;7.28;;;3.70;;
22711;SDS011;11523;50.390;8.072;2022-10-19T17:53:40;8.18;;;3.78;;
22711;SDS011;11523;50.390;8.072;2022-10-19T17:56:06;10.70;;;4.70;;
22711;SDS011;11523;50.390;8.072;2022-10-19T17:58:33;11.43;;;5.15;;
22711;SDS011;11523;50.390;8.072;2022-10-19T18:01:00;8.10;;;3.85;;
22711;SDS011;11523;50.390;8.072;2022-10-19T18:03:28;8.32;;;3.92;;
22711;SDS011;11523;50.390;8.072;2022-10-19T18:05:55;5.78;;;3.40;;
22711;SDS011;11523;50.390;8.072;2022-10-19T18:08:21;5.93;;;4.00;;
22711;SDS011;11523;50.390;8.072;2022-10-19T18:10:46;21.20;;;14.32;;
22711;SDS011;11523;50.390;8.072;2022-10-19T18:13:12;16.20;;;10.38;;
22711;SDS011;11523;50.390;8.072;2022-10-19T18:15:38;12.90;;;7.90;;
22711;SDS011;11523;50.390;8.072;2022-10-19T18:18:04;10.85;;;6.78;;
22711;SDS011;11523;50.390;8.072;2022-10-19T18:20:30;8.15;;;4.65;;
22711;SDS011;11523;50.390;8.072;2022-10-19T18:22:56;9.95;;;4.20;;
22711;SDS011;11523;50.390;8.072;2022-10-19T18:25:22;10.73;;;4.47;;
22711;SDS011;11523;50.390;8.072;2022-10-19T18:27:54;9.15;;;4.00;;
22711;SDS011;11523;50.390;8.072;2022-10-19T18:30:20;14.15;;;7.35;;
22711;SDS011;11523;50.390;8.072;2022-10-19T18:32:49;8.55;;;4.22;;
22711;SDS011;11523;50.390;8.072;2022-10-19T18:35:15;11.05;;;4.30;;
22711;SDS011;11523;50.390;8.072;2022-10-19T18:37:41;11.18;;;4.75;;
22711;SDS011;11523;50.390;8.072;2022-10-19T18:40:07;10.65;;;5.85;;
22711;SDS011;11523;50.390;8.072;2022-10-19T18:42:34;23.15;;;12.30;;
22711;SDS011;11523;50.390;8.072;2022-10-19T18:45:00;17.58;;;6.60;;
22711;SDS011;11523;50.390;8.072;2022-10-19T18:47:28;32.60;;;14.82;;
22711;SDS011;11523;50.390;8.072;2022-10-19T18:49:54;15.88;;;8.13;;
22711;SDS011;11523;50.390;8.072;2022-10-19T18:52:20;14.32;;;5.60;;
22711;SDS011;11523;50.390;8.072;2022-10-19T18:54:46;9.60;;;4.90;;
22711;SDS011;11523;50.390;8.072;2022-10-19T18:57:12;8.98;;;5.35;;
22711;SDS011;11523;50.390;8.072;2022-10-19T18:59:38;11.93;;;4.55;;
22711;SDS011;11523;50.390;8.072;2022-10-19T19:02:10;15.00;;;6.18;;
22711;SDS011;11523;50.390;8.072;2022-10-19T19:04:36;16.05;;;7.85;;
22711;SDS011;11523;50.390;8.072;2022-10-19T19:07:02;8.15;;;5.43;;
22711;SDS011;11523;50.390;8.072;2022-10-19T19:09:28;8.68;;;4.45;;
22711;SDS011;11523;50.390;8.072;2022-10-19T19:11:54;8.63;;;4.28;;
22711;SDS011;11523;50.390;8.072;2022-10-19T19:14:22;11.32;;;5.35;;
22711;SDS011;11523;50.390;8.072;2022-10-19T19:16:50;8.13;;;5.05;;
22711;SDS011;11523;50.390;8.072;2022-10-19T19:19:16;8.35;;;4.68;;
22711;SDS011;11523;50.390;8.072;2022-10-19T19:21:43;9.70;;;4.40;;
22711;SDS011;11523;50.390;8.072;2022-10-19T19:24:10;7.40;;;4.03;;
22711;SDS011;11523;50.390;8.072;2022-10-19T19:26:37;10.82;;;4.25;;
22711;SDS011;11523;50.390;8.072;2022-10-19T19:29:03;6.05;;;4.55;;
22711;SDS011;11523;50.390;8.072;2022-10-19T19:31:29;9.00;;;3.75;;
22711;SDS011;11523;50.390;8.072;2022-10-19T19:33:57;10.50;;;4.20;;
22711;SDS011;11523;50.390;8.072;2022-10-19T19:36:23;9.23;;;4.57;;
22711;SDS011;11523;50.390;8.072;2022-10-19T19:38:49;7.50;;;3.63;;
22711;SDS011;11523;50.390;8.072;2022-10-19T19:41:17;12.75;;;5.07;;
22711;SDS011;11523;50.390;8.072;2022-10-19T19:43:44;8.15;;;4.50;;
22711;SDS011;11523;50.390;8.072;2022-10-19T19:46:11;8.23;;;4.80;;
22711;SDS011;11523;50.390;8.072;2022-10-19T19:48:38;10.48;;;4.97;;
22711;SDS011;11523;50.390;8.072;2022-10-19T19:51:06;12.95;;;4.82;;
22711;SDS011;11523;50.390;8.072;2022-10-19T19:53:32;10.10;;;5.00;;
22711;SDS011;11523;50.390;8.072;2022-10-19T19:55:58;9.02;;;6.10;;
22711;SDS011;11523;50.390;8.072;2022-10-19T19:58:24;8.98;;;5.05;;
22711;SDS011;11523;50.390;8.072;2022-10-19T20:00:50;9.65;;;5.00;;
22711;SDS011;11523;50.390;8.072;2022-10-19T20:03:15;8.70;;;5.57;;
22711;SDS011;11523;50.390;8.072;2022-10-19T20:05:41;11.15;;;5.55;;
22711;SDS011;11523;50.390;8.072;2022-10-19T20:08:08;10.57;;;5.57;;
22711;SDS011;11523;50.390;8.072;2022-10-19T20:10:40;10.35;;;5.30;;
22711;SDS011;11523;50.390;8.072;2022-10-19T20:13:07;9.82;;;5.45;;
22711;SDS011;11523;50.390;8.072;2022-10-19T20:15:35;8.93;;;4.32;;
22711;SDS011;11523;50.390;8.072;2022-10-19T20:18:01;10.77;;;5.13;;
22711;SDS011;11523;50.390;8.072;2022-10-19T20:20:27;14.50;;;5.30;;
22711;SDS011;11523;50.390;8.072;2022-10-19T20:22:53;9.05;;;6.07;;
22711;SDS011;11523;50.390;8.072;2022-10-19T20:25:19;11.80;;;5.28;;
22711;SDS011;11523;50.390;8.072;2022-10-19T20:27:45;9.25;;;5.13;;
22711;SDS011;11523;50.390;8.072;2022-10-19T20:30:11;8.23;;;5.13;;
22711;SDS011;11523;50.390;8.072;2022-10-19T20:32:37;15.75;;;5.70;;